Time;durP1;ratioP1;P1;durP2;ratioP2;P2;SDS_P1;SDS_P2;PMS_P1;PMS_P2;Temp;Humidity;BMP_temperature;BMP_pressure;BME280_temperature;BME280_humidity;BME280_pressure;Samples;Min_cycle;Max_cycle;Signal;HPM_P1;HPM_P2
2020/12/08 00:01:20;;;;;;;21.93;16.20;;;3.30;99.90;;;;;;4991699;28;20179;-71
2020/12/08 00:03:45;;;;;;;18.47;14.73;;;3.30;99.90;;;;;;4991241;28;20179;-71
2020/12/08 00:06:13;;;;;;;21.43;15.27;;;3.30;99.90;;;;;;4991396;28;20184;-71
2020/12/08 00:08:39;;;;;;;19.37;14.20;;;3.40;99.90;;;;;;4990404;28;20196;-70
2020/12/08 00:11:04;;;;;;;19.07;14.40;;;3.40;99.90;;;;;;4990957;28;20452;-71
2020/12/08 00:13:30;;;;;;;20.40;13.37;;;3.40;99.90;;;;;;4991339;28;20183;-71
2020/12/08 00:15:55;;;;;;;21.70;16.53;;;3.40;99.90;;;;;;4990941;28;20179;-71
2020/12/08 00:18:21;;;;;;;21.60;13.93;;;3.40;99.90;;;;;;4990363;28;20554;-71
2020/12/08 00:20:46;;;;;;;20.00;14.90;;;3.30;99.90;;;;;;4991196;28;20187;-71
2020/12/08 00:23:12;;;;;;;19.67;14.70;;;3.20;99.90;;;;;;4991181;28;20649;-70
2020/12/08 00:25:37;;;;;;;19.37;13.80;;;3.20;99.90;;;;;;4990950;28;20180;-70
2020/12/08 00:28:03;;;;;;;21.97;15.10;;;3.20;99.90;;;;;;4989778;28;20720;-71
2020/12/08 00:30:28;;;;;;;19.27;14.70;;;3.20;99.90;;;;;;4991217;28;20657;-71
2020/12/08 00:32:54;;;;;;;20.83;15.07;;;3.20;99.90;;;;;;4991045;28;20187;-71
2020/12/08 00:35:20;;;;;;;20.33;15.53;;;3.20;99.90;;;;;;4991446;28;20191;-71
2020/12/08 00:37:46;;;;;;;21.50;14.63;;;3.30;99.90;;;;;;4989973;28;20210;-71
2020/12/08 00:40:12;;;;;;;21.83;15.00;;;3.30;99.90;;;;;;4990950;28;20179;-71
2020/12/08 00:42:40;;;;;;;21.87;15.53;;;3.30;99.90;;;;;;4991102;28;20442;-71
2020/12/08 00:45:10;;;;;;;21.07;14.90;;;3.30;99.90;;;;;;4990824;28;20431;-71
2020/12/08 00:47:36;;;;;;;22.70;16.50;;;3.10;99.90;;;;;;4976440;28;20469;-71
2020/12/08 00:50:03;;;;;;;23.37;14.83;;;3.10;99.90;;;;;;4990800;28;20455;-71
2020/12/08 00:52:28;;;;;;;23.30;16.73;;;3.10;99.90;;;;;;4991274;28;20453;-70
2020/12/08 00:54:54;;;;;;;20.90;15.57;;;3.10;99.90;;;;;;4990897;28;20422;-71
2020/12/08 00:57:21;;;;;;;19.60;14.87;;;3.00;99.90;;;;;;4990603;28;20190;-71
2020/12/08 00:59:47;;;;;;;24.90;16.47;;;3.00;99.90;;;;;;4990216;28;20247;-71
2020/12/08 01:02:17;;;;;;;22.53;15.13;;;3.00;99.90;;;;;;4990939;28;20439;-71
2020/12/08 01:04:43;;;;;;;25.50;17.13;;;2.90;99.90;;;;;;4989471;28;20447;-71
2020/12/08 01:07:09;;;;;;;22.27;17.03;;;2.90;99.90;;;;;;4990832;28;20967;-71
2020/12/08 01:09:36;;;;;;;30.60;17.70;;;2.90;99.90;;;;;;4989545;28;20450;-70
2020/12/08 01:12:02;;;;;;;27.63;16.80;;;2.90;99.90;;;;;;4990584;28;20431;-70
2020/12/08 01:14:27;;;;;;;28.33;17.83;;;2.90;99.90;;;;;;4990770;28;20438;-71
2020/12/08 04:02:00;;;;;;;26.77;17.80;;;2.60;99.90;;;;;;4987339;28;20502;-70
2020/12/08 04:04:25;;;;;;;25.13;16.70;;;2.50;99.90;;;;;;4992118;28;20427;-69
2020/12/08 04:06:51;;;;;;;24.43;16.90;;;2.50;99.90;;;;;;4991610;28;20256;-69
2020/12/08 04:09:16;;;;;;;25.50;17.10;;;2.40;99.90;;;;;;4990691;28;20770;-70
2020/12/08 04:11:42;;;;;;;24.47;17.97;;;2.30;99.90;;;;;;4991285;28;20203;-70
2020/12/08 04:14:07;;;;;;;27.50;16.80;;;2.30;99.90;;;;;;4991608;28;20750;-69
2020/12/08 04:16:34;;;;;;;26.07;18.50;;;2.20;99.90;;;;;;4991403;28;20211;-70
2020/12/08 04:19:00;;;;;;;29.67;19.27;;;2.30;99.90;;;;;;4990337;28;20207;-70
2020/12/08 04:21:28;;;;;;;29.03;19.40;;;2.20;99.90;;;;;;4991135;28;20438;-70
2020/12/08 04:23:59;;;;;;;29.17;20.40;;;2.20;99.90;;;;;;4991520;28;20998;-70
2020/12/08 04:26:25;;;;;;;31.00;19.20;;;2.20;99.90;;;;;;4991120;28;20466;-70
2020/12/08 04:28:51;;;;;;;32.27;19.00;;;2.20;99.90;;;;;;4990429;28;20458;-72
2020/12/08 04:31:17;;;;;;;28.10;18.77;;;2.20;99.90;;;;;;4991259;28;20446;-70
2020/12/08 04:33:43;;;;;;;29.30;18.57;;;2.30;99.90;;;;;;4990750;28;20266;-70
2020/12/08 04:36:16;;;;;;;26.20;16.97;;;2.20;99.90;;;;;;4990972;28;20172;-70
2020/12/08 04:38:43;;;;;;;27.17;17.13;;;2.20;99.90;;;;;;4990210;28;20985;-69
2020/12/08 04:41:17;;;;;;;29.87;19.67;;;2.10;99.90;;;;;;4990582;28;20447;-70
2020/12/08 04:43:44;;;;;;;28.20;18.07;;;2.10;99.90;;;;;;4990886;28;20437;-69
2020/12/08 04:46:10;;;;;;;29.13;19.80;;;2.20;99.90;;;;;;4990985;28;20427;-70
2020/12/08 04:48:36;;;;;;;30.43;19.57;;;2.20;99.90;;;;;;4989469;28;20980;-70
2020/12/08 04:51:03;;;;;;;26.93;18.50;;;2.20;99.90;;;;;;4991059;28;20430;-69
2020/12/08 04:53:28;;;;;;;24.50;17.27;;;2.10;99.90;;;;;;4990426;28;20426;-70
2020/12/08 04:55:54;;;;;;;28.87;18.20;;;2.20;99.90;;;;;;4990609;28;20437;-70
2020/12/08 04:58:20;;;;;;;32.27;20.03;;;2.30;99.90;;;;;;4989841;28;20233;-70
2020/12/08 05:00:45;;;;;;;28.07;19.17;;;2.30;99.90;;;;;;4990164;28;20183;-70
2020/12/08 05:03:11;;;;;;;27.43;18.70;;;2.20;99.90;;;;;;4989417;28;20194;-70
2020/12/08 05:05:39;;;;;;;29.93;19.30;;;2.20;99.90;;;;;;4990860;28;20180;-70
2020/12/08 05:08:09;;;;;;;33.03;20.53;;;2.20;99.90;;;;;;4989439;28;20820;-70
2020/12/08 05:10:35;;;;;;;27.70;18.67;;;2.30;99.90;;;;;;4990609;28;20438;-69
2020/12/08 05:13:01;;;;;;;29.53;18.33;;;2.40;99.90;;;;;;4990468;28;20430;-70
2020/12/08 05:15:27;;;;;;;30.30;19.10;;;2.50;99.90;;;;;;4990679;28;20176;-69
2020/12/08 05:17:52;;;;;;;25.13;17.60;;;2.50;99.90;;;;;;4989490;28;20171;-69
2020/12/08 05:20:19;;;;;;;29.50;19.00;;;2.40;99.90;;;;;;4991113;28;20185;-70
2020/12/08 05:22:55;;;;;;;27.10;18.87;;;2.30;99.90;;;;;;4990617;28;20583;-70
2020/12/08 05:25:21;;;;;;;30.20;18.10;;;2.30;99.90;;;;;;4990962;28;20705;-69
2020/12/08 05:27:51;;;;;;;26.07;15.77;;;2.30;99.90;;;;;;4989491;28;20455;-70
2020/12/08 05:30:17;;;;;;;26.80;17.33;;;2.30;99.90;;;;;;4990509;28;20438;-69
2020/12/08 05:32:43;;;;;;;26.23;17.57;;;2.20;99.90;;;;;;4990326;28;20445;-70
2020/12/08 05:35:20;;;;;;;29.83;19.47;;;2.30;99.90;;;;;;4990661;28;20434;-70
2020/12/08 05:37:47;;;;;;;29.87;18.80;;;2.30;99.90;;;;;;4989435;28;20967;-70
2020/12/08 05:40:15;;;;;;;29.20;20.07;;;2.30;99.90;;;;;;4990335;28;20457;-69
2020/12/08 05:42:46;;;;;;;32.77;20.80;;;2.30;99.90;;;;;;4990184;28;20437;-70
2020/12/08 05:45:14;;;;;;;33.70;20.60;;;2.30;99.90;;;;;;4990760;28;20434;-70
2020/12/08 05:47:53;;;;;;;29.93;19.57;;;2.30;99.90;;;;;;4989206;28;20501;-70
2020/12/08 05:50:20;;;;;;;28.20;17.47;;;2.30;99.90;;;;;;4990434;28;20947;-70
2020/12/08 05:52:49;;;;;;;31.40;19.87;;;2.40;99.90;;;;;;4990323;28;20423;-69
2020/12/08 05:55:23;;;;;;;33.37;21.87;;;2.40;99.90;;;;;;4990383;28;20465;-70
2020/12/08 05:57:51;;;;;;;32.03;20.93;;;2.40;99.90;;;;;;4984188;28;20435;-69
2020/12/08 06:00:19;;;;;;;31.43;20.87;;;2.40;99.90;;;;;;4990227;28;20803;-69
2020/12/08 06:02:45;;;;;;;33.70;21.60;;;2.40;99.90;;;;;;4990484;28;20431;-69
2020/12/08 06:05:10;;;;;;;34.47;18.80;;;2.40;99.90;;;;;;4990075;28;20442;-69
2020/12/08 06:07:36;;;;;;;31.90;20.90;;;2.40;99.90;;;;;;4989982;28;20203;-70
2020/12/08 06:10:11;;;;;;;35.23;21.17;;;2.50;99.90;;;;;;4989777;28;20204;-69
2020/12/08 06:12:38;;;;;;;30.43;20.40;;;2.50;99.90;;;;;;4990499;28;20283;-69
2020/12/08 06:15:24;;;;;;;31.50;20.90;;;2.50;99.90;;;;;;4993708;28;20439;-70
2020/12/08 06:17:50;;;;;;;32.70;19.67;;;2.40;99.90;;;;;;4992787;28;20441;-70
2020/12/08 06:20:16;;;;;;;28.07;18.17;;;2.40;99.90;;;;;;4993480;28;20446;-70
2020/12/08 06:22:59;;;;;;;35.57;20.67;;;2.30;99.90;;;;;;4993566;28;20434;-70
2020/12/08 06:25:25;;;;;;;29.53;21.27;;;2.20;99.90;;;;;;4993707;28;20438;-70
2020/12/08 06:27:56;;;;;;;30.67;20.03;;;2.20;99.90;;;;;;4992172;28;20458;-69
2020/12/08 06:30:22;;;;;;;32.70;20.57;;;2.20;99.90;;;;;;4993340;28;20514;-69
2020/12/08 06:32:48;;;;;;;26.67;18.27;;;2.10;99.90;;;;;;4993173;28;20513;-69
2020/12/08 06:35:15;;;;;;;35.33;21.60;;;2.00;99.90;;;;;;4993289;28;20176;-69
2020/12/08 06:38:00;;;;;;;40.10;23.70;;;1.90;99.90;;;;;;4992383;28;20430;-69
2020/12/08 06:40:26;;;;;;;40.63;22.30;;;1.90;99.90;;;;;;4993098;28;20430;-69
2020/12/08 06:42:53;;;;;;;39.27;23.73;;;1.80;99.90;;;;;;4993233;28;20525;-70
2020/12/08 06:45:21;;;;;;;36.60;22.63;;;1.80;99.90;;;;;;4993195;28;20437;-70
2020/12/08 06:47:47;;;;;;;36.93;24.60;;;1.80;99.90;;;;;;4991309;28;20467;-69
2020/12/08 06:50:27;;;;;;;38.33;22.90;;;1.80;99.90;;;;;;4993034;28;20802;-70
2020/12/08 06:53:02;;;;;;;36.87;22.13;;;1.70;99.90;;;;;;4993211;28;20434;-69
2020/12/08 06:55:30;;;;;;;42.23;24.10;;;1.60;99.90;;;;;;4992880;28;20431;-69
2020/12/08 06:58:05;;;;;;;36.30;23.43;;;1.50;99.90;;;;;;4991526;28;20446;-70
2020/12/08 07:00:31;;;;;;;37.70;22.37;;;1.50;99.90;;;;;;4987006;28;20435;-69
2020/12/08 07:02:58;;;;;;;37.93;23.70;;;1.50;99.90;;;;;;4982786;28;20533;-69
2020/12/08 07:05:29;;;;;;;37.83;23.33;;;1.50;99.90;;;;;;4992574;28;20467;-70
2020/12/08 07:07:58;;;;;;;45.03;23.67;;;1.50;99.90;;;;;;4991424;28;20620;-69
2020/12/08 07:10:24;;;;;;;40.27;24.87;;;1.50;99.90;;;;;;4987975;28;20449;-70
2020/12/08 07:12:53;;;;;;;44.97;26.80;;;1.40;99.90;;;;;;4992220;28;20439;-69
2020/12/08 07:15:23;;;;;;;46.60;24.97;;;1.40;99.90;;;;;;4985373;28;20797;-70
2020/12/08 07:18:02;;;;;;;42.27;24.10;;;1.40;99.90;;;;;;4991009;28;20438;-69
2020/12/08 07:20:28;;;;;;;48.33;25.60;;;1.50;99.90;;;;;;4990019;28;20453;-70
2020/12/08 07:22:54;;;;;;;34.93;24.00;;;1.50;99.90;;;;;;4991949;28;20434;-70
2020/12/08 07:25:22;;;;;;;42.80;24.97;;;1.60;99.90;;;;;;4984096;28;20191;-69
2020/12/08 07:27:53;;;;;;;37.37;23.53;;;1.60;99.90;;;;;;4973066;28;20462;-69
2020/12/08 07:30:24;;;;;;;40.03;24.90;;;1.60;99.90;;;;;;4987664;28;20805;-70
2020/12/08 07:32:51;;;;;;;37.50;23.10;;;1.60;99.90;;;;;;4992092;28;20438;-70
2020/12/08 07:35:30;;;;;;;35.70;21.73;;;1.60;99.90;;;;;;4989088;28;20469;-70
2020/12/08 07:37:57;;;;;;;36.27;21.70;;;1.60;99.90;;;;;;4990737;28;20437;-70
2020/12/08 07:40:33;;;;;;;37.97;23.40;;;1.70;99.90;;;;;;4991675;28;20569;-70
2020/12/08 07:42:59;;;;;;;35.97;21.73;;;1.80;99.90;;;;;;4992074;28;20936;-70
2020/12/08 07:45:25;;;;;;;39.30;22.17;;;1.90;99.90;;;;;;4988283;28;20517;-70
2020/12/08 07:47:56;;;;;;;36.30;23.90;;;2.30;99.90;;;;;;4990658;28;20546;-69
2020/12/08 07:50:30;;;;;;;36.60;22.33;;;2.70;99.90;;;;;;4991886;28;20172;-68
2020/12/08 07:53:06;;;;;;;36.70;22.60;;;3.00;99.90;;;;;;4990420;28;20839;-69
2020/12/08 07:55:46;;;;;;;35.10;21.70;;;3.20;99.90;;;;;;4987195;28;20733;-68
2020/12/08 07:58:12;;;;;;;30.07;20.17;;;3.00;99.90;;;;;;4989439;28;20971;-70
2020/12/08 08:00:38;;;;;;;31.53;20.23;;;2.80;99.90;;;;;;4991151;28;20468;-69
2020/12/08 08:03:07;;;;;;;34.67;22.60;;;2.70;99.90;;;;;;4989992;28;20520;-69
2020/12/08 08:05:33;;;;;;;31.80;19.40;;;2.60;99.90;;;;;;4988076;28;20465;-69
2020/12/08 08:07:59;;;;;;;35.87;21.70;;;2.50;99.90;;;;;;4989139;28;20548;-69
2020/12/08 08:10:24;;;;;;;36.50;23.30;;;2.40;99.90;;;;;;4991222;28;20314;-69
2020/12/08 08:12:50;;;;;;;32.93;23.33;;;2.30;99.90;;;;;;4991088;28;20512;-70
2020/12/08 08:15:15;;;;;;;26.77;20.10;;;2.40;99.90;;;;;;4987925;28;20187;-69
2020/12/08 08:17:41;;;;;;;35.47;21.87;;;2.70;99.90;;;;;;4989540;28;20195;-69
2020/12/08 08:20:07;;;;;;;38.00;24.13;;;3.50;99.90;;;;;;4995333;28;20218;-69
2020/12/08 08:22:33;;;;;;;31.33;22.57;;;4.80;99.90;;;;;;4990801;28;20799;-69
2020/12/08 08:24:59;;;;;;;26.27;20.37;;;6.40;99.90;;;;;;4989702;28;20798;-70
2020/12/08 08:27:25;;;;;;;28.40;20.97;;;7.90;99.90;;;;;;4990381;28;20463;-70
2020/12/08 08:29:50;;;;;;;29.07;22.50;;;9.40;99.90;;;;;;4988565;28;20204;-71
2020/12/08 08:32:16;;;;;;;29.47;22.90;;;10.00;99.90;;;;;;4989327;28;20175;-72
2020/12/08 08:34:41;;;;;;;28.17;21.97;;;10.10;99.90;;;;;;4989629;28;20176;-70
2020/12/08 08:37:07;;;;;;;29.00;24.37;;;10.50;99.90;;;;;;4987121;28;20234;-70
2020/12/08 08:39:32;;;;;;;23.90;18.77;;;11.10;99.90;;;;;;4990302;28;20199;-70
2020/12/08 08:41:58;;;;;;;28.50;22.73;;;11.70;99.90;;;;;;4990977;28;20191;-70
2020/12/08 08:44:24;;;;;;;27.40;22.13;;;11.80;99.90;;;;;;4990675;28;20215;-70
2020/12/08 08:46:49;;;;;;;27.60;22.70;;;10.80;99.90;;;;;;4993646;28;20661;-71
2020/12/08 08:49:15;;;;;;;25.00;20.20;;;10.20;99.90;;;;;;4989965;28;20224;-70
2020/12/08 08:51:45;;;;;;;24.80;19.63;;;9.00;99.90;;;;;;4990759;28;20558;-70
2020/12/08 08:54:14;;;;;;;21.70;18.90;;;9.60;99.90;;;;;;4990808;28;20175;-69
2020/12/08 08:56:39;;;;;;;23.87;20.07;;;10.80;99.90;;;;;;4992024;28;20468;-70
2020/12/08 08:59:06;;;;;;;26.47;22.40;;;12.20;99.90;;;;;;4990023;28;20457;-70
2020/12/08 09:01:35;;;;;;;28.10;20.30;;;12.80;99.90;;;;;;4990847;28;20183;-70
2020/12/08 09:04:01;;;;;;;29.97;25.83;;;13.80;96.70;;;;;;4990871;28;20998;-71
2020/12/08 09:06:27;;;;;;;24.07;21.47;;;14.20;95.70;;;;;;4988522;28;20435;-70
2020/12/08 09:08:52;;;;;;;24.87;22.27;;;15.00;93.80;;;;;;4989189;28;20447;-69
2020/12/08 09:11:18;;;;;;;23.37;20.87;;;14.90;92.30;;;;;;4990399;28;20175;-70
2020/12/08 09:13:44;;;;;;;24.87;22.17;;;14.80;91.40;;;;;;4990201;28;20191;-70
2020/12/08 09:16:10;;;;;;;25.30;22.60;;;15.50;90.20;;;;;;4986774;28;20176;-69
2020/12/08 09:18:36;;;;;;;25.60;22.87;;;15.80;87.20;;;;;;4988162;28;20258;-69
2020/12/08 09:21:02;;;;;;;23.57;21.17;;;15.10;86.20;;;;;;4990285;28;20470;-74
2020/12/08 09:23:27;;;;;;;25.60;22.40;;;14.80;88.90;;;;;;4990088;28;20203;-69
2020/12/08 09:25:54;;;;;;;24.97;22.40;;;15.70;85.10;;;;;;4986891;28;20180;-69
2020/12/08 09:28:21;;;;;;;23.53;21.17;;;15.30;83.30;;;;;;4989404;28;20679;-69
2020/12/08 09:30:47;;;;;;;24.00;21.50;;;16.30;82.50;;;;;;4990208;28;20501;-69
2020/12/08 09:33:13;;;;;;;25.47;22.77;;;16.60;80.10;;;;;;4990128;28;20449;-69
2020/12/08 09:35:38;;;;;;;23.97;21.40;;;17.10;78.30;;;;;;4986546;28;20944;-70
2020/12/08 09:38:04;;;;;;;26.77;24.03;;;17.40;76.30;;;;;;4988736;28;20262;-70
2020/12/08 09:40:30;;;;;;;29.23;26.33;;;17.30;75.90;;;;;;4989910;28;20190;-69
2020/12/08 09:42:55;;;;;;;27.37;24.47;;;17.30;72.70;;;;;;4989979;28;20179;-69
2020/12/08 09:45:21;;;;;;;24.83;22.30;;;17.30;73.20;;;;;;4986659;28;20195;-68
2020/12/08 09:47:46;;;;;;;25.97;23.40;;;18.00;71.70;;;;;;4991543;28;20219;-68
2020/12/08 09:50:13;;;;;;;23.50;21.20;;;18.20;67.60;;;;;;4993688;28;20171;-69
2020/12/08 09:52:39;;;;;;;26.07;23.43;;;19.00;65.70;;;;;;4993614;28;20595;-69
2020/12/08 09:55:05;;;;;;;22.97;20.63;;;18.60;64.90;;;;;;4993236;28;20438;-69
2020/12/08 09:57:31;;;;;;;24.80;22.50;;;18.60;64.40;;;;;;4994753;28;20561;-69
2020/12/08 09:59:57;;;;;;;26.03;23.47;;;18.10;64.30;;;;;;4992522;28;20453;-69
2020/12/08 10:02:25;;;;;;;23.10;20.90;;;17.80;65.20;;;;;;4993541;28;20176;-69
2020/12/08 10:04:51;;;;;;;24.63;22.13;;;17.30;65.90;;;;;;4993272;28;20180;-68
2020/12/08 10:07:18;;;;;;;23.57;21.17;;;18.00;65.40;;;;;;5000813;28;20485;-69
2020/12/08 10:09:46;;;;;;;24.07;21.80;;;18.90;63.40;;;;;;4992881;28;20458;-69
2020/12/08 10:12:13;;;;;;;24.43;22.20;;;19.50;60.50;;;;;;4993279;28;20878;-69
2020/12/08 10:14:40;;;;;;;22.97;20.63;;;20.00;58.30;;;;;;4993002;28;20430;-69
2020/12/08 10:17:07;;;;;;;24.60;22.30;;;20.30;57.20;;;;;;4991974;28;20433;-69
2020/12/08 10:19:32;;;;;;;24.17;21.83;;;19.20;56.30;;;;;;4991898;28;20476;-69
2020/12/08 10:21:58;;;;;;;26.70;24.10;;;19.30;57.50;;;;;;4993055;28;20526;-69
2020/12/08 10:24:24;;;;;;;24.30;21.90;;;19.80;57.00;;;;;;4993382;28;20217;-68
2020/12/08 10:26:50;;;;;;;24.87;22.50;;;20.50;55.80;;;;;;4989711;28;21630;-67
2020/12/08 10:29:16;;;;;;;23.80;21.37;;;19.70;55.00;;;;;;4992148;28;20863;-68
2020/12/08 10:31:42;;;;;;;27.83;24.93;;;18.70;56.80;;;;;;4992052;28;20423;-69
2020/12/08 10:34:08;;;;;;;24.17;21.87;;;19.10;57.50;;;;;;4992739;28;20669;-69
2020/12/08 10:36:34;;;;;;;25.87;23.17;;;20.80;54.90;;;;;;4989671;28;20322;-69
2020/12/08 10:39:00;;;;;;;23.33;21.10;;;21.40;53.00;;;;;;4991952;28;20533;-69
2020/12/08 10:41:26;;;;;;;24.40;22.10;;;21.10;52.50;;;;;;4993102;28;20841;-70
2020/12/08 10:43:52;;;;;;;23.73;21.53;;;21.00;52.90;;;;;;4992622;28;20171;-70
2020/12/08 10:46:18;;;;;;;24.47;22.07;;;21.90;51.40;;;;;;4992858;28;20940;-70
2020/12/08 10:48:43;;;;;;;24.30;22.10;;;21.20;51.80;;;;;;4991477;28;20203;-70
2020/12/08 10:51:09;;;;;;;24.00;21.90;;;21.60;51.30;;;;;;4991490;28;20191;-70
2020/12/08 10:53:35;;;;;;;25.83;23.33;;;22.40;50.30;;;;;;4992573;28;20273;-70
2020/12/08 10:56:00;;;;;;;26.23;23.83;;;23.00;48.80;;;;;;4991089;28;20183;-70
2020/12/08 10:58:26;;;;;;;23.50;21.20;;;22.90;48.60;;;;;;4990450;28;20195;-70
2020/12/08 11:00:51;;;;;;;24.40;22.20;;;23.00;48.20;;;;;;4992019;28;20653;-69
2020/12/08 11:03:17;;;;;;;23.13;21.10;;;23.40;47.70;;;;;;4991822;28;20207;-69
2020/12/08 11:05:42;;;;;;;25.30;22.90;;;24.20;46.40;;;;;;4990595;28;20270;-69
2020/12/08 11:08:10;;;;;;;23.43;21.30;;;23.60;46.50;;;;;;4990207;28;20196;-69
2020/12/08 11:10:36;;;;;;;24.17;22.07;;;23.30;46.40;;;;;;4990685;28;20175;-69
2020/12/08 11:13:02;;;;;;;24.00;21.90;;;23.70;46.00;;;;;;4992415;28;20442;-69
2020/12/08 11:15:27;;;;;;;24.30;22.03;;;22.40;46.20;;;;;;4989861;28;20194;-69
2020/12/08 11:17:53;;;;;;;24.90;22.50;;;22.40;47.30;;;;;;4990905;28;20211;-69
2020/12/08 11:20:19;;;;;;;25.03;22.33;;;22.90;47.00;;;;;;4992756;28;20538;-69
2020/12/08 11:22:44;;;;;;;26.37;23.67;;;22.80;46.80;;;;;;4992268;28;20176;-69
2020/12/08 11:25:10;;;;;;;26.30;23.70;;;22.40;47.10;;;;;;4991109;28;20283;-69
2020/12/08 11:27:36;;;;;;;25.47;22.97;;;20.20;48.10;;;;;;5002247;28;20619;-69
2020/12/08 11:30:02;;;;;;;28.20;25.60;;;19.80;50.40;;;;;;4991419;28;20209;-66
2020/12/08 11:32:28;;;;;;;24.77;22.33;;;19.40;51.20;;;;;;4991878;28;20175;-67
2020/12/08 11:34:53;;;;;;;26.57;23.97;;;18.80;52.00;;;;;;4991346;28;20961;-67
2020/12/08 11:37:19;;;;;;;26.67;23.97;;;17.70;53.70;;;;;;4995675;28;20656;-66
2020/12/08 11:39:45;;;;;;;23.43;21.00;;;16.20;56.30;;;;;;4990738;28;20198;-67
2020/12/08 11:42:12;;;;;;;24.00;21.80;;;15.80;58.10;;;;;;4991790;28;20180;-68
2020/12/08 11:44:38;;;;;;;25.20;22.70;;;16.10;57.80;;;;;;4991451;28;21007;-71
2020/12/08 11:47:03;;;;;;;24.00;21.53;;;16.30;58.50;;;;;;4985863;28;20533;-69
2020/12/08 11:49:30;;;;;;;23.87;21.47;;;15.50;58.40;;;;;;4989444;28;20203;-69
2020/12/08 11:51:56;;;;;;;27.37;24.60;;;15.50;59.40;;;;;;4990051;28;20660;-71
2020/12/08 11:54:21;;;;;;;28.43;22.77;;;15.20;59.60;;;;;;4990321;28;20518;-71
2020/12/08 11:56:49;;;;;;;26.60;23.80;;;15.40;59.90;;;;;;4990158;28;20547;-69
2020/12/08 11:59:14;;;;;;;25.53;22.80;;;15.40;59.40;;;;;;4989084;28;20216;-69
2020/12/08 12:01:40;;;;;;;25.47;22.67;;;16.30;59.30;;;;;;4989664;28;20426;-69
2020/12/08 12:04:05;;;;;;;24.40;21.80;;;16.40;58.20;;;;;;4990277;28;20177;-69
2020/12/08 12:06:31;;;;;;;25.10;22.60;;;16.90;57.40;;;;;;4990153;28;20198;-69
2020/12/08 12:08:56;;;;;;;24.07;21.60;;;17.40;56.70;;;;;;4990038;28;20218;-69
2020/12/08 12:11:22;;;;;;;23.27;21.07;;;17.40;56.90;;;;;;4990727;28;20697;-69
2020/12/08 12:13:47;;;;;;;25.80;23.20;;;18.20;55.70;;;;;;4996943;28;20645;-69
2020/12/08 12:16:15;;;;;;;24.47;21.83;;;18.70;54.30;;;;;;4991367;28;20213;-69
2020/12/08 12:18:40;;;;;;;24.43;21.93;;;18.20;54.10;;;;;;4988778;28;20215;-69
2020/12/08 12:21:06;;;;;;;25.70;22.90;;;18.70;54.20;;;;;;4990756;28;20940;-69
2020/12/08 12:23:31;;;;;;;25.50;22.90;;;18.70;53.70;;;;;;4990746;28;20222;-68
2020/12/08 12:25:57;;;;;;;28.53;25.40;;;18.90;53.60;;;;;;4989034;28;20179;-69
2020/12/08 12:28:23;;;;;;;30.43;27.23;;;19.60;52.50;;;;;;4989398;28;20215;-69
2020/12/08 12:30:48;;;;;;;24.37;21.77;;;20.20;52.20;;;;;;4990336;28;20565;-69
2020/12/08 12:33:14;;;;;;;26.07;23.23;;;19.90;51.30;;;;;;4990095;28;20867;-69
2020/12/08 12:35:40;;;;;;;25.30;22.67;;;19.60;51.20;;;;;;4988595;28;20186;-70
2020/12/08 12:38:05;;;;;;;28.13;25.27;;;18.70;53.20;;;;;;4993173;28;20211;-69
2020/12/08 12:40:31;;;;;;;27.83;24.90;;;18.00;54.20;;;;;;4990273;28;20175;-70
2020/12/08 12:42:56;;;;;;;27.27;24.40;;;17.90;53.90;;;;;;4990223;28;20182;-70
2020/12/08 12:45:22;;;;;;;26.70;24.00;;;17.20;54.80;;;;;;4990955;28;20221;-69
2020/12/08 12:47:47;;;;;;;26.03;21.83;;;16.10;55.80;;;;;;4994725;28;20188;-70
2020/12/08 12:50:13;;;;;;;24.37;22.00;;;14.90;58.10;;;;;;4989955;28;20186;-69
2020/12/08 12:52:38;;;;;;;24.07;21.57;;;13.80;60.50;;;;;;4990590;28;20175;-71
2020/12/08 12:55:04;;;;;;;24.17;21.53;;;13.50;63.70;;;;;;4989386;28;20180;-72
2020/12/08 12:57:29;;;;;;;27.80;24.80;;;12.90;63.40;;;;;;4998069;28;20681;-69
2020/12/08 12:59:55;;;;;;;22.97;19.87;;;12.40;66.00;;;;;;4989637;28;20450;-71
2020/12/08 13:02:21;;;;;;;23.43;20.80;;;12.70;66.40;;;;;;4989608;28;20194;-70
2020/12/08 13:04:47;;;;;;;27.47;22.30;;;13.60;64.60;;;;;;4989894;28;20163;-69
2020/12/08 13:07:17;;;;;;;20.17;17.60;;;14.20;62.90;;;;;;4992597;28;20446;-71
2020/12/08 13:09:42;;;;;;;20.07;17.97;;;14.40;61.50;;;;;;4989404;28;20195;-70
2020/12/08 13:12:08;;;;;;;19.77;16.97;;;14.00;62.30;;;;;;4990217;28;20442;-69
2020/12/08 13:14:33;;;;;;;21.33;18.43;;;14.40;62.20;;;;;;4990391;28;20187;-72
2020/12/08 13:16:59;;;;;;;19.30;16.70;;;13.90;62.00;;;;;;4988903;28;20222;-69
2020/12/08 13:19:25;;;;;;;18.70;16.80;;;14.00;62.20;;;;;;4988860;28;20688;-69
2020/12/08 13:21:52;;;;;;;21.20;18.90;;;13.30;63.40;;;;;;4991739;28;20175;-69
2020/12/08 13:24:18;;;;;;;29.23;23.30;;;13.00;65.20;;;;;;4984233;28;20187;-69
2020/12/08 13:26:43;;;;;;;22.57;20.03;;;12.90;65.80;;;;;;4989408;28;20974;-68
2020/12/08 13:29:10;;;;;;;27.30;22.30;;;12.50;66.90;;;;;;4989295;28;20635;-70
2020/12/08 13:31:36;;;;;;;22.53;20.13;;;11.90;68.60;;;;;;4990673;28;20720;-70
2020/12/08 13:34:02;;;;;;;22.37;19.13;;;11.40;70.90;;;;;;4990662;28;20461;-70
2020/12/08 13:36:28;;;;;;;19.40;16.93;;;10.50;73.60;;;;;;4989650;28;20769;-70
2020/12/08 13:38:54;;;;;;;22.47;16.77;;;9.70;78.10;;;;;;4989847;28;20478;-71
2020/12/08 13:41:20;;;;;;;20.30;17.30;;;9.20;82.60;;;;;;4990755;28;20469;-70
2020/12/08 13:43:45;;;;;;;18.43;16.07;;;9.00;85.30;;;;;;4991079;28;20183;-70
2020/12/08 13:46:11;;;;;;;19.47;17.20;;;8.70;87.60;;;;;;4996468;28;20214;-70
2020/12/08 13:48:36;;;;;;;19.50;16.97;;;8.50;90.30;;;;;;4995037;28;20203;-70
2020/12/08 13:51:02;;;;;;;20.60;16.87;;;8.50;91.90;;;;;;4990606;28;20667;-70
2020/12/08 13:53:28;;;;;;;21.33;18.20;;;8.60;92.20;;;;;;4990368;28;20190;-69
2020/12/08 13:55:56;;;;;;;22.67;18.67;;;8.60;92.70;;;;;;4988785;28;20439;-69
2020/12/08 13:58:21;;;;;;;18.47;16.33;;;8.50;93.70;;;;;;4994532;28;20609;-69
2020/12/08 14:00:47;;;;;;;19.77;15.70;;;8.30;94.70;;;;;;4990433;28;20922;-69
2020/12/08 14:03:12;;;;;;;20.17;16.57;;;8.00;96.00;;;;;;4990880;28;20184;-69
2020/12/08 14:05:40;;;;;;;20.00;16.13;;;8.00;97.20;;;;;;4993526;28;20228;-69
2020/12/08 14:08:07;;;;;;;21.30;17.37;;;8.00;97.80;;;;;;4996988;28;20249;-69
2020/12/08 14:10:33;;;;;;;22.23;17.00;;;8.00;99.00;;;;;;4990072;28;20438;-69
2020/12/08 14:12:59;;;;;;;21.30;16.73;;;8.00;99.90;;;;;;4990285;28;20436;-69
2020/12/08 14:15:25;;;;;;;22.27;17.03;;;7.90;99.90;;;;;;4988154;28;21351;-69
2020/12/08 14:17:51;;;;;;;19.53;16.47;;;7.80;99.90;;;;;;4989170;28;20211;-69
2020/12/08 14:20:19;;;;;;;18.97;15.70;;;7.80;99.90;;;;;;4990349;28;21073;-69
2020/12/08 14:22:44;;;;;;;22.70;17.20;;;7.70;99.90;;;;;;4989074;28;20638;-72
2020/12/08 14:25:10;;;;;;;20.60;17.40;;;7.60;99.90;;;;;;4987920;28;20444;-70
2020/12/08 14:27:36;;;;;;;21.73;16.17;;;7.60;99.90;;;;;;4982777;28;20184;-71
2020/12/08 14:30:03;;;;;;;20.50;16.20;;;7.60;99.90;;;;;;4988776;28;20203;-71
2020/12/08 14:32:28;;;;;;;19.40;15.03;;;7.50;99.90;;;;;;4988975;28;20186;-71
2020/12/08 14:34:54;;;;;;;21.87;17.30;;;7.40;99.90;;;;;;4987948;28;20965;-71
2020/12/08 14:37:20;;;;;;;21.77;18.13;;;7.20;99.90;;;;;;4991312;28;20204;-71
2020/12/08 14:39:45;;;;;;;25.50;18.63;;;7.10;99.90;;;;;;4989173;28;20219;-71
2020/12/08 14:42:15;;;;;;;24.67;17.87;;;7.00;99.90;;;;;;4989190;28;20180;-71
2020/12/08 14:44:41;;;;;;;21.30;15.87;;;6.90;99.90;;;;;;4989075;28;20207;-71
2020/12/08 14:47:07;;;;;;;27.53;19.77;;;6.80;99.90;;;;;;4998341;28;20808;-71
2020/12/08 14:49:33;;;;;;;21.13;16.87;;;6.70;99.90;;;;;;4988387;28;20462;-71
2020/12/08 14:51:58;;;;;;;22.30;17.30;;;6.60;99.90;;;;;;4989342;28;20184;-71
2020/12/08 14:54:24;;;;;;;24.47;18.33;;;6.50;99.90;;;;;;4988634;28;20195;-71
2020/12/08 14:56:49;;;;;;;29.63;18.80;;;6.30;99.90;;;;;;4988307;28;20191;-71
2020/12/08 14:59:15;;;;;;;26.30;18.70;;;6.20;99.90;;;;;;4988243;28;20204;-71
2020/12/08 15:01:41;;;;;;;25.00;16.93;;;6.10;99.90;;;;;;4988876;28;20172;-71
2020/12/08 15:04:07;;;;;;;24.70;19.03;;;6.10;99.90;;;;;;4987634;28;20180;-71
2020/12/08 15:06:33;;;;;;;21.07;17.93;;;6.00;99.90;;;;;;4987143;28;20438;-71
2020/12/08 15:09:00;;;;;;;21.73;18.30;;;6.00;99.90;;;;;;4988668;28;20699;-71
2020/12/08 15:11:27;;;;;;;19.87;16.37;;;5.90;99.90;;;;;;4988951;28;20464;-71
2020/12/08 15:13:53;;;;;;;21.03;15.73;;;5.80;99.90;;;;;;4989082;28;20923;-71
2020/12/08 15:16:19;;;;;;;23.37;18.13;;;5.80;99.90;;;;;;4989592;28;20453;-71